Terminal Aerodrome Forecast
Issued by NWS

Home | Current Version | Previous Version | Text Only | Print | Product List | Glossary Off
Versions: 1 2 3 4 5 6 7 8 9 10 11 12 13 14 15 16 17 18 19 20 21 22 23 24

623
FTUS43 KLOT 151457 AAA
TAFORD
TAF AMD
KORD 151457Z 1515/1618 29021G32KT P6SM BKN025 BKN035 BKN250
     FM151700 31019G27KT P6SM BKN025
     FM152100 32014G22KT P6SM BKN040
     FM152300 32010KT P6SM BKN050
     FM160300 27005KT P6SM SCT250=

USA.gov is the U.S. government's official web portal to all federal, state and local government web resources and services.